Time,TemperatureF,DewpointF,PressureIn,WindDirection,WindDirectionDegrees,WindSpeedMPH,WindSpeedGustMPH,Humidity,HourlyPrecipIn,Conditions,Clouds,dailyrainin,SolarRadiationWatts/m^2,SoftwareType,DateUTC
2013-04-19 00:03:00,74.0,72.0,-100.00,SSE,159,7.0,18.0,92,0.00,,,0.00,0.000000,,2013-04-19 05:03:00,
2013-04-19 00:11:00,74.0,72.0,-100.00,SSE,159,7.0,18.0,92,0.00,,,0.00,0.000000,,2013-04-19 05:11:00,
2013-04-19 00:22:00,74.0,72.0,-100.00,SSE,159,7.0,18.0,92,0.00,,,0.00,0.000000,,2013-04-19 05:22:00,
2013-04-19 00:52:00,74.0,72.0,-100.00,South,170,7.0,15.0,93,0.00,,,0.00,0.000000,,2013-04-19 05:52:00,
2013-04-19 01:02:00,74.0,72.0,-100.00,South,170,7.0,15.0,93,0.00,,,0.00,0.000000,,2013-04-19 06:02:00,
2013-04-19 01:11:00,74.0,72.0,-100.00,South,170,7.0,15.0,93,0.00,,,0.00,0.000000,,2013-04-19 06:11:00,
2013-04-19 01:22:00,74.0,72.0,-100.00,South,170,7.0,15.0,93,0.00,,,0.00,0.000000,,2013-04-19 06:22:00,
2013-04-19 01:53:00,74.0,72.0,-100.00,South,178,6.0,15.0,93,0.00,,,0.00,0.000000,,2013-04-19 06:53:00,
2013-04-19 02:02:00,74.0,72.0,-100.00,South,178,6.0,15.0,93,0.00,,,0.00,0.000000,,2013-04-19 07:02:00,
2013-04-19 02:12:00,74.0,72.0,-100.00,South,178,6.0,15.0,93,0.00,,,0.00,0.000000,,2013-04-19 07:12:00,
2013-04-19 02:21:00,74.0,72.0,-100.00,South,178,6.0,15.0,93,0.00,,,0.00,0.000000,,2013-04-19 07:21:00,
2013-04-19 02:52:00,75.0,73.0,-100.00,South,181,7.0,18.0,92,0.00,,,0.00,0.000000,,2013-04-19 07:52:00,
2013-04-19 03:02:00,75.0,73.0,-100.00,South,181,7.0,18.0,92,0.00,,,0.00,0.000000,,2013-04-19 08:02:00,
2013-04-19 03:12:00,75.0,73.0,-100.00,South,181,7.0,18.0,92,0.00,,,0.00,0.000000,,2013-04-19 08:12:00,
2013-04-19 03:21:00,75.0,73.0,-100.00,South,181,7.0,18.0,92,0.00,,,0.00,0.000000,,2013-04-19 08:21:00,
2013-04-19 03:52:00,75.0,72.0,-100.00,South,183,8.0,16.0,91,0.00,,,0.00,0.000000,,2013-04-19 08:52:00,
2013-04-19 04:01:00,75.0,72.0,-100.00,South,183,8.0,16.0,91,0.00,,,0.00,0.000000,,2013-04-19 09:01:00,
2013-04-19 04:12:00,75.0,72.0,-100.00,South,183,8.0,16.0,91,0.00,,,0.00,0.000000,,2013-04-19 09:12:00,
2013-04-19 04:21:00,75.0,72.0,-100.00,South,183,8.0,16.0,91,0.00,,,0.00,0.000000,,2013-04-19 09:21:00,
2013-04-19 04:52:00,75.0,71.0,-100.00,SSW,210,9.0,18.0,88,0.00,,,0.00,0.000000,,2013-04-19 09:52:00,
2013-04-19 05:02:00,75.0,71.0,-100.00,SSW,210,9.0,18.0,88,0.00,,,0.00,0.000000,,2013-04-19 10:02:00,
2013-04-19 05:13:00,75.0,71.0,-100.00,SSW,210,9.0,18.0,88,0.00,,,0.00,0.000000,,2013-04-19 10:13:00,
2013-04-19 05:23:00,75.0,71.0,-100.00,SSW,210,9.0,18.0,88,0.00,,,0.00,0.000000,,2013-04-19 10:23:00,
2013-04-19 05:52:00,63.0,61.0,-100.00,NNW,328,8.0,19.0,93,0.07,,,0.07,0.000000,,2013-04-19 10:52:00,
2013-04-19 06:03:00,63.0,61.0,-100.00,NNW,328,8.0,19.0,93,0.07,,,0.07,0.000000,,2013-04-19 11:03:00,
2013-04-19 06:11:00,63.0,61.0,-100.00,NNW,328,8.0,19.0,93,0.07,,,0.07,0.000000,,2013-04-19 11:11:00,
2013-04-19 06:22:00,63.0,61.0,-100.00,NNW,328,8.0,19.0,93,0.07,,,0.07,0.000000,,2013-04-19 11:22:00,
2013-04-19 06:52:00,60.0,58.0,-100.00,NNW,337,10.0,20.0,93,0.02,,,0.09,0.000000,,2013-04-19 11:52:00,
2013-04-19 07:03:00,60.0,58.0,-100.00,NNW,337,10.0,20.0,93,0.02,,,0.09,0.000000,,2013-04-19 12:03:00,
2013-04-19 07:12:00,60.0,58.0,-100.00,NNW,337,10.0,20.0,93,0.02,,,0.09,0.000000,,2013-04-19 12:12:00,
2013-04-19 07:22:00,60.0,58.0,-100.00,NNW,337,10.0,20.0,93,0.02,,,0.09,0.000000,,2013-04-19 12:22:00,
2013-04-19 07:53:00,56.0,53.0,-100.00,NW,319,10.0,22.0,89,0.01,,,0.10,4.000000,,2013-04-19 12:53:00,
2013-04-19 08:01:00,56.0,53.0,-100.00,NW,319,10.0,22.0,89,0.01,,,0.10,4.000000,,2013-04-19 13:01:00,
2013-04-19 08:11:00,56.0,53.0,-100.00,NW,319,10.0,22.0,89,0.01,,,0.10,4.000000,,2013-04-19 13:11:00,
2013-04-19 08:21:00,56.0,53.0,-100.00,NW,319,10.0,22.0,89,0.01,,,0.10,4.000000,,2013-04-19 13:21:00,
2013-04-19 08:52:00,53.0,51.0,-100.00,NW,320,10.0,22.0,92,0.11,,,0.21,7.000000,,2013-04-19 13:52:00,
2013-04-19 09:02:00,53.0,51.0,-100.00,NW,320,10.0,22.0,92,0.11,,,0.21,7.000000,,2013-04-19 14:02:00,
2013-04-19 09:11:00,53.0,51.0,-100.00,NW,320,10.0,22.0,92,0.11,,,0.21,7.000000,,2013-04-19 14:11:00,
2013-04-19 09:22:00,53.0,51.0,-100.00,NW,320,10.0,22.0,92,0.11,,,0.21,7.000000,,2013-04-19 14:22:00,
2013-04-19 09:52:00,53.0,51.0,-100.00,NNW,328,9.0,22.0,93,0.36,,,0.57,57.000000,,2013-04-19 14:52:00,
2013-04-19 10:02:00,53.0,51.0,-100.00,NNW,328,9.0,22.0,93,0.36,,,0.57,57.000000,,2013-04-19 15:02:00,
2013-04-19 10:12:00,53.0,51.0,-100.00,NNW,328,9.0,22.0,93,0.36,,,0.57,57.000000,,2013-04-19 15:12:00,
2013-04-19 10:21:00,53.0,51.0,-100.00,NNW,328,9.0,22.0,93,0.36,,,0.57,57.000000,,2013-04-19 15:21:00,
2013-04-19 10:52:00,53.0,50.0,-100.00,NNW,330,10.0,17.0,89,0.00,,,0.57,160.000000,,2013-04-19 15:52:00,
2013-04-19 11:03:00,53.0,50.0,-100.00,NNW,330,10.0,17.0,89,0.00,,,0.57,160.000000,,2013-04-19 16:03:00,
2013-04-19 11:13:00,53.0,50.0,-100.00,NNW,330,10.0,17.0,89,0.00,,,0.57,160.000000,,2013-04-19 16:13:00,
2013-04-19 11:23:00,53.0,50.0,-100.00,NNW,330,10.0,17.0,89,0.00,,,0.57,160.000000,,2013-04-19 16:23:00,
2013-04-19 11:53:00,52.0,48.0,-100.00,NW,326,8.0,20.0,87,0.00,,,0.57,164.000000,,2013-04-19 16:53:00,
2013-04-19 12:02:00,52.0,48.0,-100.00,NW,326,8.0,20.0,87,0.00,,,0.57,164.000000,,2013-04-19 17:02:00,
2013-04-19 12:12:00,52.0,48.0,-100.00,NW,326,8.0,20.0,87,0.00,,,0.57,164.000000,,2013-04-19 17:12:00,
2013-04-19 12:21:00,52.0,48.0,-100.00,NW,326,8.0,20.0,87,0.00,,,0.57,164.000000,,2013-04-19 17:21:00,
2013-04-19 12:52:00,52.0,46.0,-100.00,NW,320,8.0,19.0,81,0.00,,,0.57,132.000000,,2013-04-19 17:52:00,
2013-04-19 13:02:00,52.0,46.0,-100.00,NW,320,8.0,19.0,81,0.00,,,0.57,132.000000,,2013-04-19 18:02:00,
2013-04-19 13:13:00,52.0,46.0,-100.00,NW,320,8.0,19.0,81,0.00,,,0.57,132.000000,,2013-04-19 18:13:00,
2013-04-19 13:23:00,52.0,46.0,-100.00,NW,320,8.0,19.0,81,0.00,,,0.57,132.000000,,2013-04-19 18:23:00,
2013-04-19 13:52:00,52.0,46.0,-100.00,NNW,337,9.0,20.0,79,0.00,,,0.57,89.000000,,2013-04-19 18:52:00,
2013-04-19 14:02:00,52.0,46.0,-100.00,NNW,337,9.0,20.0,79,0.00,,,0.57,89.000000,,2013-04-19 19:02:00,
2013-04-19 14:11:00,52.0,46.0,-100.00,NNW,337,9.0,20.0,79,0.00,,,0.57,89.000000,,2013-04-19 19:11:00,
2013-04-19 14:21:00,52.0,46.0,-100.00,NNW,337,9.0,20.0,79,0.00,,,0.57,89.000000,,2013-04-19 19:21:00,
2013-04-19 14:52:00,50.0,46.0,-100.00,North,6,5.0,16.0,87,0.04,,,0.61,93.000000,,2013-04-19 19:52:00,
2013-04-19 15:02:00,50.0,46.0,-100.00,North,6,5.0,16.0,87,0.04,,,0.61,93.000000,,2013-04-19 20:02:00,
2013-04-19 15:11:00,50.0,46.0,-100.00,North,6,5.0,16.0,87,0.04,,,0.61,93.000000,,2013-04-19 20:11:00,
2013-04-19 15:22:00,50.0,46.0,-100.00,North,6,5.0,16.0,87,0.04,,,0.61,93.000000,,2013-04-19 20:22:00,
2013-04-19 15:52:00,49.0,46.0,-100.00,NNW,345,7.0,13.0,89,0.04,,,0.65,77.000000,,2013-04-19 20:52:00,
2013-04-19 16:01:00,49.0,46.0,-100.00,NNW,345,7.0,13.0,89,0.04,,,0.65,77.000000,,2013-04-19 21:01:00,
2013-04-19 16:11:00,49.0,46.0,-100.00,NNW,345,7.0,13.0,89,0.04,,,0.65,77.000000,,2013-04-19 21:11:00,
2013-04-19 16:21:00,49.0,46.0,-100.00,NNW,345,7.0,13.0,89,0.04,,,0.65,77.000000,,2013-04-19 21:21:00,
2013-04-19 16:53:00,49.0,46.0,-100.00,North,358,3.0,14.0,90,0.02,,,0.67,89.000000,,2013-04-19 21:53:00,
2013-04-19 17:02:00,49.0,46.0,-100.00,North,358,3.0,14.0,90,0.02,,,0.67,89.000000,,2013-04-19 22:02:00,
2013-04-19 17:12:00,49.0,46.0,-100.00,North,358,3.0,14.0,90,0.02,,,0.67,89.000000,,2013-04-19 22:12:00,
2013-04-19 17:22:00,49.0,46.0,-100.00,North,358,3.0,14.0,90,0.02,,,0.67,89.000000,,2013-04-19 22:22:00,
2013-04-19 17:52:00,50.0,48.0,-100.00,South,184,2.0,7.0,93,0.02,,,0.69,49.000000,,2013-04-19 22:52:00,
2013-04-19 18:03:00,50.0,48.0,-100.00,South,184,2.0,7.0,93,0.02,,,0.69,49.000000,,2013-04-19 23:03:00,
2013-04-19 18:11:00,50.0,48.0,-100.00,South,184,2.0,7.0,93,0.02,,,0.69,49.000000,,2013-04-19 23:11:00,
2013-04-19 18:22:00,50.0,48.0,-100.00,South,184,2.0,7.0,93,0.02,,,0.69,49.000000,,2013-04-19 23:22:00,
2013-04-19 18:52:00,51.0,48.0,-100.00,WSW,254,2.0,5.0,91,0.00,,,0.69,80.000000,,2013-04-19 23:52:00,
2013-04-19 19:02:00,51.0,48.0,-100.00,WSW,254,2.0,5.0,91,0.00,,,0.69,80.000000,,2013-04-20 00:02:00,
2013-04-19 19:12:00,51.0,48.0,-100.00,WSW,254,2.0,5.0,91,0.00,,,0.69,80.000000,,2013-04-20 00:12:00,
2013-04-19 19:21:00,51.0,48.0,-100.00,WSW,254,2.0,5.0,91,0.00,,,0.69,80.000000,,2013-04-20 00:21:00,
2013-04-19 19:52:00,51.0,49.0,-100.00,WNW,303,2.0,4.0,92,0.00,,,0.69,29.000000,,2013-04-20 00:52:00,
2013-04-19 20:01:00,51.0,49.0,-100.00,WNW,303,2.0,4.0,92,0.00,,,0.69,29.000000,,2013-04-20 01:01:00,
2013-04-19 20:11:00,51.0,49.0,-100.00,WNW,303,2.0,4.0,92,0.00,,,0.69,29.000000,,2013-04-20 01:11:00,
2013-04-19 20:21:00,51.0,49.0,-100.00,WNW,303,2.0,4.0,92,0.00,,,0.69,29.000000,,2013-04-20 01:21:00,
2013-04-19 20:52:00,49.0,45.0,-100.00,NNW,329,0.0,7.0,86,0.00,,,0.69,1.000000,,2013-04-20 01:52:00,
2013-04-19 21:01:00,49.0,45.0,-100.00,NNW,329,0.0,7.0,86,0.00,,,0.69,1.000000,,2013-04-20 02:01:00,
2013-04-19 21:11:00,49.0,45.0,-100.00,NNW,329,0.0,7.0,86,0.00,,,0.69,1.000000,,2013-04-20 02:11:00,
2013-04-19 21:21:00,49.0,45.0,-100.00,NNW,329,0.0,7.0,86,0.00,,,0.69,1.000000,,2013-04-20 02:21:00,
2013-04-19 21:52:00,47.0,45.0,-100.00,North,7,0.0,3.0,92,0.00,,,0.69,0.000000,,2013-04-20 02:52:00,
2013-04-19 22:01:00,47.0,45.0,-100.00,North,7,0.0,3.0,92,0.00,,,0.69,0.000000,,2013-04-20 03:01:00,
2013-04-19 22:11:00,47.0,45.0,-100.00,North,7,0.0,3.0,92,0.00,,,0.69,0.000000,,2013-04-20 03:11:00,
2013-04-19 22:21:00,47.0,45.0,-100.00,North,7,0.0,3.0,92,0.00,,,0.69,0.000000,,2013-04-20 03:21:00,
2013-04-19 22:53:00,45.0,43.0,-100.00,SSE,161,0.0,2.0,94,0.00,,,0.69,0.000000,,2013-04-20 03:53:00,
2013-04-19 23:03:00,45.0,43.0,-100.00,SSE,161,0.0,2.0,94,0.00,,,0.69,0.000000,,2013-04-20 04:03:00,
2013-04-19 23:12:00,45.0,43.0,-100.00,SSE,161,0.0,2.0,94,0.00,,,0.69,0.000000,,2013-04-20 04:12:00,
2013-04-19 23:23:00,45.0,43.0,-100.00,SSE,161,0.0,2.0,94,0.00,,,0.69,0.000000,,2013-04-20 04:23:00,
2013-04-19 23:53:00,43.0,42.0,-100.00,ENE,73,0.0,0.0,95,0.00,,,0.69,0.000000,,2013-04-20 04:53:00,